Time;durP1;ratioP1;P1;durP2;ratioP2;P2;SDS_P1;SDS_P2;PMS_P1;PMS_P2;Temp;Humidity;BMP_temperature;BMP_pressure;BME280_temperature;BME280_humidity;BME280_pressure;Samples;Min_cycle;Max_cycle;Signal;HPM_P1;HPM_P2
2021/06/16 00:02:00;;;;;;;4.50;3.23;;;11.30;99.90;;;;;;5033038;28;20296;-87
2021/06/16 00:04:25;;;;;;;3.73;2.63;;;11.30;99.90;;;;;;5002025;28;20209;-89
2021/06/16 00:06:51;;;;;;;7.43;2.67;;;11.30;99.90;;;;;;4999839;28;20780;-86
2021/06/16 00:09:17;;;;;;;7.20;3.10;;;11.30;99.90;;;;;;5017442;28;20230;-87
2021/06/16 00:11:43;;;;;;;3.80;2.27;;;11.20;99.90;;;;;;5014639;28;20296;-86
2021/06/16 00:14:09;;;;;;;5.90;2.70;;;11.30;99.90;;;;;;5031797;28;20218;-86
2021/06/16 00:16:35;;;;;;;4.00;2.87;;;11.30;99.90;;;;;;5033091;28;20225;-86
2021/06/16 00:19:01;;;;;;;7.87;3.20;;;11.30;99.90;;;;;;5014609;28;20186;-87
2021/06/16 00:21:27;;;;;;;3.70;2.60;;;11.30;99.90;;;;;;5035760;28;20987;-86
2021/06/16 00:23:53;;;;;;;4.87;1.97;;;11.30;99.90;;;;;;5034442;28;20222;-86
2021/06/16 00:26:19;;;;;;;2.73;2.53;;;11.20;99.90;;;;;;5016707;28;20801;-86
2021/06/16 00:28:45;;;;;;;3.07;2.30;;;11.10;99.90;;;;;;5031306;28;20680;-86
2021/06/16 00:31:11;;;;;;;6.57;3.33;;;11.00;99.90;;;;;;5009242;28;20604;-87
2021/06/16 00:33:37;;;;;;;5.03;2.60;;;11.10;99.90;;;;;;5028816;28;20221;-88
2021/06/16 00:36:03;;;;;;;5.60;2.80;;;11.10;99.90;;;;;;5012245;28;21234;-87
2021/06/16 00:38:29;;;;;;;4.93;2.63;;;11.10;99.90;;;;;;5012631;28;20341;-88
2021/06/16 00:40:58;;;;;;;5.83;2.70;;;11.10;99.90;;;;;;5012562;28;20272;-88
2021/06/16 00:43:24;;;;;;;3.23;2.40;;;11.20;99.90;;;;;;5012385;28;20351;-88
2021/06/16 00:45:50;;;;;;;3.43;2.30;;;11.30;99.90;;;;;;5010611;28;20194;-87
2021/06/16 00:48:16;;;;;;;2.60;2.13;;;11.30;99.90;;;;;;5029546;28;20225;-86
2021/06/16 00:50:42;;;;;;;4.60;2.70;;;11.30;99.90;;;;;;5029721;28;20264;-87
2021/06/16 00:53:09;;;;;;;9.10;3.13;;;11.20;99.90;;;;;;5029806;28;20645;-89
2021/06/16 00:55:38;;;;;;;3.03;2.47;;;11.20;99.90;;;;;;5017216;28;20249;-89
2021/06/16 00:58:12;;;;;;;3.70;2.73;;;11.20;99.90;;;;;;5029342;28;20186;-86
2021/06/16 01:01:10;;;;;;;6.43;3.07;;;11.10;99.90;;;;;;5015149;28;20198;-87
2021/06/16 01:03:45;;;;;;;4.27;2.37;;;11.10;99.90;;;;;;5022877;28;20216;-85
2021/06/16 01:06:14;;;;;;;6.77;3.33;;;11.20;99.90;;;;;;5029189;28;20222;-86
2021/06/16 01:08:47;;;;;;;4.77;2.70;;;11.20;99.90;;;;;;5032447;28;20279;-88
2021/06/16 01:11:15;;;;;;;6.83;3.93;;;11.10;99.90;;;;;;5032525;28;20946;-87
2021/06/16 01:13:50;;;;;;;5.93;2.90;;;11.10;99.90;;;;;;5016203;28;20309;-88
2021/06/16 01:16:31;;;;;;;4.83;2.70;;;11.00;99.90;;;;;;5033041;28;20214;-87
2021/06/16 01:19:06;;;;;;;5.13;2.63;;;11.00;99.90;;;;;;5031342;28;20173;-88
2021/06/16 01:21:38;;;;;;;4.60;2.23;;;11.00;99.90;;;;;;5032819;28;20657;-88
2021/06/16 01:24:07;;;;;;;4.80;2.77;;;11.00;99.90;;;;;;5031405;28;20846;-87
2021/06/16 01:26:40;;;;;;;4.77;3.07;;;11.00;99.90;;;;;;5031925;28;20321;-89
2021/06/16 01:29:09;;;;;;;3.50;3.20;;;11.00;99.90;;;;;;5030231;28;20222;-87
2021/06/16 01:31:35;;;;;;;8.30;3.80;;;11.00;99.90;;;;;;5032536;28;20230;-87
2021/06/16 01:34:02;;;;;;;11.43;3.73;;;10.90;99.90;;;;;;5031302;28;20199;-89
2021/06/16 01:36:28;;;;;;;4.70;2.67;;;10.90;99.90;;;;;;5016636;28;20204;-89
2021/06/16 01:38:55;;;;;;;3.90;2.80;;;10.90;99.90;;;;;;5016379;28;20702;-87
2021/06/16 01:41:22;;;;;;;4.40;2.13;;;10.80;99.90;;;;;;5032484;28;20249;-88
2021/06/16 01:43:51;;;;;;;6.70;3.10;;;10.70;99.90;;;;;;5035395;28;20229;-89
2021/06/16 01:46:18;;;;;;;5.23;3.70;;;10.60;99.90;;;;;;5029245;28;20232;-87
2021/06/16 01:48:47;;;;;;;4.50;3.30;;;10.60;99.90;;;;;;5030727;28;20711;-87
2021/06/16 01:51:13;;;;;;;5.10;3.43;;;10.60;99.90;;;;;;5032793;28;20225;-85
2021/06/16 01:53:40;;;;;;;7.70;4.30;;;10.70;99.90;;;;;;5018746;28;20233;-85
2021/06/16 01:56:07;;;;;;;9.37;3.87;;;10.70;99.90;;;;;;5017478;28;20222;-87
2021/06/16 01:58:34;;;;;;;6.87;3.37;;;10.70;99.90;;;;;;5031142;28;20214;-87
2021/06/16 02:01:01;;;;;;;6.93;3.70;;;10.70;99.90;;;;;;5032848;28;20275;-88
2021/06/16 02:03:28;;;;;;;7.67;4.40;;;10.70;99.90;;;;;;5033167;28;20570;-87
2021/06/16 02:05:57;;;;;;;5.10;3.70;;;10.60;99.90;;;;;;5034512;28;21215;-88
2021/06/16 02:08:26;;;;;;;3.90;2.93;;;10.70;99.90;;;;;;5033134;28;20390;-87
2021/06/16 02:10:53;;;;;;;6.47;3.50;;;10.70;99.90;;;;;;5015841;28;20240;-87
2021/06/16 02:13:32;;;;;;;6.53;3.27;;;10.70;99.90;;;;;;5029717;28;20223;-88
2021/06/16 02:16:02;;;;;;;4.87;3.07;;;10.70;99.90;;;;;;5046492;28;20231;-88
2021/06/16 02:18:45;;;;;;;3.67;2.33;;;10.70;99.90;;;;;;5031752;28;20259;-87
2021/06/16 02:21:12;;;;;;;2.97;2.67;;;10.70;99.90;;;;;;5032057;28;20217;-87
2021/06/16 02:23:38;;;;;;;8.90;3.83;;;10.60;99.90;;;;;;5032758;28;20221;-89
2021/06/16 02:26:04;;;;;;;5.30;3.43;;;10.60;99.90;;;;;;5015161;28;20718;-87
2021/06/16 02:28:31;;;;;;;4.70;2.33;;;10.60;99.90;;;;;;5032527;28;20696;-87
2021/06/16 02:30:58;;;;;;;8.47;3.23;;;10.60;99.90;;;;;;5035610;28;20244;-87
2021/06/16 02:33:24;;;;;;;5.77;3.10;;;10.60;99.90;;;;;;5034903;28;21342;-87
2021/06/16 02:35:50;;;;;;;8.20;3.80;;;10.70;99.90;;;;;;5036554;28;20217;-87
2021/06/16 02:38:20;;;;;;;7.53;3.00;;;10.70;99.90;;;;;;5033646;28;20981;-87
2021/06/16 02:40:47;;;;;;;3.00;2.50;;;10.70;99.90;;;;;;5037004;28;20235;-87
2021/06/16 02:43:14;;;;;;;3.53;2.90;;;10.50;99.90;;;;;;5019018;28;21273;-86
2021/06/16 02:45:41;;;;;;;3.47;2.57;;;10.30;99.90;;;;;;5035959;28;20576;-88
2021/06/16 02:48:08;;;;;;;4.40;3.00;;;10.20;99.90;;;;;;5032543;28;20218;-89
2021/06/16 02:50:36;;;;;;;7.43;2.73;;;10.20;99.90;;;;;;5035430;28;20230;-88
2021/06/16 02:53:08;;;;;;;3.13;2.83;;;10.20;99.90;;;;;;5021308;28;20309;-89
2021/06/16 02:55:35;;;;;;;6.10;3.40;;;10.10;99.90;;;;;;5033178;28;20257;-87
2021/06/16 02:58:01;;;;;;;6.40;2.23;;;10.10;99.90;;;;;;5035922;28;20196;-86
2021/06/16 03:00:28;;;;;;;3.23;2.93;;;10.20;99.90;;;;;;5035408;28;20187;-87
2021/06/16 03:02:55;;;;;;;7.10;3.27;;;10.20;99.90;;;;;;5017015;28;20253;-86
2021/06/16 03:05:24;;;;;;;5.57;3.43;;;10.20;99.90;;;;;;5035740;28;20635;-88
2021/06/16 03:07:53;;;;;;;5.27;3.70;;;10.30;99.90;;;;;;5035904;28;21228;-89
2021/06/16 03:10:21;;;;;;;6.03;3.10;;;10.40;99.90;;;;;;5034400;28;20238;-88
2021/06/16 03:12:52;;;;;;;5.50;3.30;;;10.60;99.90;;;;;;5033433;28;21311;-87
2021/06/16 03:15:19;;;;;;;7.17;3.83;;;10.60;99.90;;;;;;5050966;28;20300;-87
2021/06/16 03:17:47;;;;;;;5.80;3.47;;;10.60;99.90;;;;;;5034841;28;20206;-89
2021/06/16 03:20:17;;;;;;;6.43;3.07;;;10.60;99.90;;;;;;5035116;28;20216;-88
2021/06/16 03:22:44;;;;;;;4.20;2.67;;;10.60;99.90;;;;;;5035107;28;20676;-89
2021/06/16 03:25:12;;;;;;;8.17;3.40;;;10.50;99.90;;;;;;5018544;28;20414;-88
2021/06/16 03:27:38;;;;;;;4.30;3.87;;;10.50;99.90;;;;;;5033606;28;20666;-88
2021/06/16 03:30:06;;;;;;;5.73;3.73;;;10.40;99.90;;;;;;5035442;28;20304;-88
2021/06/16 03:32:33;;;;;;;3.63;2.97;;;10.30;99.90;;;;;;5032620;28;20228;-89
2021/06/16 03:34:59;;;;;;;3.93;3.37;;;10.20;99.90;;;;;;5010010;28;20222;-88
2021/06/16 03:37:26;;;;;;;4.83;3.53;;;10.10;99.90;;;;;;5017465;28;20223;-89
2021/06/16 03:39:53;;;;;;;6.80;3.53;;;10.10;99.90;;;;;;5018196;28;20197;-88
2021/06/16 03:42:20;;;;;;;4.50;3.07;;;10.00;99.90;;;;;;5033149;28;20626;-89
2021/06/16 03:44:47;;;;;;;4.97;2.97;;;10.00;99.90;;;;;;5015800;28;20372;-89
2021/06/16 03:47:16;;;;;;;5.10;2.73;;;10.10;99.90;;;;;;5033931;28;20575;-89
2021/06/16 03:49:44;;;;;;;3.37;3.07;;;10.10;99.90;;;;;;5034557;28;20214;-88
2021/06/16 03:52:12;;;;;;;5.20;3.67;;;10.20;99.90;;;;;;5034216;28;20210;-88
2021/06/16 03:54:39;;;;;;;4.57;3.50;;;10.40;99.90;;;;;;5035885;28;20186;-88
2021/06/16 03:57:07;;;;;;;4.87;3.07;;;10.50;99.90;;;;;;5033504;28;20214;-87
2021/06/16 03:59:35;;;;;;;5.73;3.33;;;10.50;99.90;;;;;;5033602;28;20222;-89
2021/06/16 04:02:01;;;;;;;8.53;3.60;;;10.60;99.90;;;;;;5037183;28;20249;-88
2021/06/16 04:04:28;;;;;;;4.40;3.30;;;10.70;99.90;;;;;;5033428;28;20308;-86
2021/06/16 04:06:54;;;;;;;6.73;3.83;;;10.80;99.90;;;;;;5036248;28;20186;-88
2021/06/16 04:09:21;;;;;;;5.33;3.23;;;10.90;99.90;;;;;;5035682;28;20210;-89
2021/06/16 04:11:47;;;;;;;7.47;3.17;;;11.00;99.90;;;;;;5034435;28;20230;-88
2021/06/16 04:14:14;;;;;;;5.37;3.43;;;11.20;99.90;;;;;;5018312;28;20291;-86
2021/06/16 04:16:43;;;;;;;9.30;3.47;;;11.40;99.90;;;;;;5036481;28;20240;-87
2021/06/16 04:19:09;;;;;;;6.77;3.73;;;11.70;99.90;;;;;;5013894;28;20201;-87
2021/06/16 04:21:35;;;;;;;6.00;4.27;;;11.80;99.90;;;;;;5015789;28;20531;-86
2021/06/16 04:24:01;;;;;;;7.90;4.27;;;12.00;99.90;;;;;;5034887;28;20724;-87
2021/06/16 04:26:27;;;;;;;6.97;3.80;;;12.10;99.90;;;;;;5020855;28;20743;-87
2021/06/16 04:28:53;;;;;;;7.93;3.50;;;12.30;99.90;;;;;;5033619;28;20229;-89
2021/06/16 04:31:18;;;;;;;3.47;2.77;;;12.60;99.90;;;;;;5032569;28;20241;-86
2021/06/16 04:33:45;;;;;;;7.80;4.63;;;12.70;99.90;;;;;;5013391;28;20995;-88
2021/06/16 04:36:10;;;;;;;6.40;2.93;;;12.90;99.90;;;;;;5006423;28;20276;-89
2021/06/16 04:38:36;;;;;;;3.90;3.50;;;13.20;99.90;;;;;;5008317;28;20219;-90
2021/06/16 04:41:03;;;;;;;7.13;3.47;;;13.40;99.90;;;;;;5011891;28;20305;-91
2021/06/16 04:43:29;;;;;;;9.07;3.83;;;13.60;99.90;;;;;;5034296;28;20217;-91
2021/06/16 04:45:55;;;;;;;4.87;3.90;;;13.70;99.90;;;;;;5014101;28;20197;-91
2021/06/16 04:48:21;;;;;;;5.67;3.30;;;13.70;99.90;;;;;;5019653;28;20205;-91
2021/06/16 04:50:46;;;;;;;8.73;3.77;;;13.90;99.90;;;;;;5035276;28;20230;-92
2021/06/16 04:53:12;;;;;;;4.33;3.50;;;14.10;99.90;;;;;;5032197;28;21009;-92
2021/06/16 04:55:38;;;;;;;13.13;3.23;;;14.10;99.90;;;;;;5034279;28;20849;-94
2021/06/16 04:58:05;;;;;;;7.10;4.17;;;14.30;99.90;;;;;;5033799;28;20213;-92
2021/06/16 05:00:31;;;;;;;4.77;2.83;;;14.50;99.90;;;;;;5033118;28;20185;-94
2021/06/16 05:02:59;;;;;;;7.37;3.73;;;14.60;99.90;;;;;;5032751;28;20314;-92
2021/06/16 05:05:29;;;;;;;5.53;3.20;;;14.70;99.90;;;;;;5033459;28;20218;-92
2021/06/16 05:07:55;;;;;;;3.63;2.50;;;14.70;99.90;;;;;;5048555;28;20261;-93
2021/06/16 05:10:23;;;;;;;4.37;3.10;;;14.70;99.90;;;;;;5033963;28;20219;-92
2021/06/16 05:12:49;;;;;;;9.73;3.37;;;14.80;99.90;;;;;;5036126;28;20208;-91
2021/06/16 05:15:15;;;;;;;4.80;3.43;;;14.90;99.90;;;;;;5022157;28;21279;-91
2021/06/16 05:17:42;;;;;;;6.00;3.23;;;15.10;99.90;;;;;;5032957;28;20219;-92
2021/06/16 05:20:10;;;;;;;4.57;3.33;;;15.30;99.90;;;;;;5035378;28;20229;-91
2021/06/16 05:22:37;;;;;;;5.13;2.50;;;15.50;99.90;;;;;;5033505;28;20704;-93
2021/06/16 05:25:06;;;;;;;6.00;3.73;;;15.80;99.90;;;;;;5033866;28;21219;-93
2021/06/16 05:27:34;;;;;;;5.63;2.90;;;15.90;99.90;;;;;;5051379;28;20185;-93
2021/06/16 05:30:01;;;;;;;7.27;2.83;;;16.00;99.90;;;;;;5032461;28;20241;-91
2021/06/16 05:32:27;;;;;;;4.27;2.90;;;16.00;99.90;;;;;;5032569;28;20238;-93
2021/06/16 05:34:56;;;;;;;5.63;3.47;;;16.20;99.90;;;;;;5030607;28;20218;-91
2021/06/16 05:37:23;;;;;;;5.87;3.40;;;16.20;99.90;;;;;;5015849;28;20218;-93
2021/06/16 05:39:51;;;;;;;7.20;3.87;;;16.10;99.90;;;;;;5016721;28;20193;-89
2021/06/16 05:42:17;;;;;;;3.60;3.00;;;16.40;99.90;;;;;;5033886;28;20232;-88
2021/06/16 05:44:43;;;;;;;6.97;4.23;;;16.70;99.90;;;;;;5005075;28;20572;-90
2021/06/16 05:47:08;;;;;;;5.43;3.70;;;17.20;99.90;;;;;;5015495;28;20588;-89
2021/06/16 05:49:34;;;;;;;4.93;3.23;;;17.70;99.90;;;;;;5032054;28;20222;-90
2021/06/16 05:52:03;;;;;;;7.50;3.73;;;18.60;99.90;;;;;;5016044;28;20225;-89
2021/06/16 05:54:29;;;;;;;6.03;2.47;;;20.00;99.90;;;;;;5031837;28;20181;-88
2021/06/16 05:56:54;;;;;;;3.40;3.07;;;20.70;99.90;;;;;;5031151;28;20222;-88
2021/06/16 05:59:20;;;;;;;7.30;3.17;;;21.40;99.90;;;;;;5020843;28;20278;-88
2021/06/16 06:01:46;;;;;;;4.00;2.73;;;21.60;99.90;;;;;;5034551;28;20222;-88
2021/06/16 06:04:13;;;;;;;6.00;3.13;;;21.80;99.90;;;;;;5006361;28;20706;-90
2021/06/16 06:06:42;;;;;;;8.17;3.57;;;22.10;99.90;;;;;;5032750;28;20173;-93
2021/06/16 06:09:10;;;;;;;4.57;2.87;;;22.20;99.90;;;;;;5031491;28;20218;-90
2021/06/16 06:11:37;;;;;;;5.03;3.07;;;22.30;99.90;;;;;;5032454;28;20229;-88
2021/06/16 06:14:05;;;;;;;6.10;3.30;;;22.20;99.90;;;;;;5032026;28;20230;-88
2021/06/16 06:16:30;;;;;;;5.20;2.97;;;22.10;99.90;;;;;;5031733;28;20701;-88
2021/06/16 06:18:56;;;;;;;4.43;3.80;;;21.50;99.90;;;;;;5030238;28;20192;-88
2021/06/16 06:21:30;;;;;;;6.07;3.63;;;21.70;99.90;;;;;;5014698;28;20190;-88
2021/06/16 06:23:57;;;;;;;4.93;3.80;;;21.30;99.90;;;;;;5031852;28;20221;-89
2021/06/16 06:26:23;;;;;;;6.47;3.70;;;21.50;99.90;;;;;;5014906;28;20249;-89
2021/06/16 06:28:51;;;;;;;10.93;4.05;;;21.90;99.90;;;;;;5032823;28;20316;-91
2021/06/16 06:31:16;;;;;;;3.73;3.27;;;22.10;99.90;;;;;;5030877;28;20233;-88
2021/06/16 06:33:42;;;;;;;7.82;4.43;;;22.30;99.90;;;;;;5032996;28;20612;-89
2021/06/16 06:36:08;;;;;;;4.55;3.95;;;22.30;99.90;;;;;;5011172;28;20799;-87
2021/06/16 06:38:34;;;;;;;6.57;3.97;;;22.70;99.90;;;;;;5046603;28;20213;-89
2021/06/16 06:41:00;;;;;;;6.38;4.53;;;23.60;99.90;;;;;;5031452;28;20281;-91
2021/06/16 06:43:26;;;;;;;6.85;4.80;;;22.90;99.90;;;;;;5034001;28;20218;-91
2021/06/16 06:45:52;;;;;;;9.98;3.97;;;22.40;99.90;;;;;;5031005;28;20247;-90
2021/06/16 06:48:18;;;;;;;7.32;4.35;;;22.30;99.90;;;;;;5020822;28;20226;-90
2021/06/16 06:50:43;;;;;;;9.02;4.50;;;22.30;99.90;;;;;;5031183;28;20264;-90
2021/06/16 06:53:09;;;;;;;8.57;4.40;;;22.00;99.90;;;;;;5009813;28;20324;-87
2021/06/16 06:55:35;;;;;;;11.52;5.45;;;23.20;99.90;;;;;;5032998;28;21052;-89
2021/06/16 06:58:01;;;;;;;5.68;4.45;;;23.70;99.90;;;;;;5022620;28;20179;-90
2021/06/16 07:00:27;;;;;;;7.15;4.78;;;23.50;99.90;;;;;;5033858;28;20599;-89
2021/06/16 07:02:55;;;;;;;6.68;3.63;;;24.10;99.90;;;;;;5029300;28;21152;-89
2021/06/16 07:05:21;;;;;;;5.97;4.30;;;23.30;99.90;;;;;;5013524;28;20234;-88
2021/06/16 07:07:47;;;;;;;11.13;4.90;;;23.80;99.90;;;;;;5029423;28;20214;-89
2021/06/16 07:10:13;;;;;;;4.78;4.30;;;23.10;99.90;;;;;;5012903;28;20190;-88
2021/06/16 07:12:40;;;;;;;4.47;3.58;;;23.60;99.90;;;;;;5032911;28;20368;-88
2021/06/16 07:15:06;;;;;;;4.30;3.83;;;24.10;99.90;;;;;;5000241;28;20293;-90
2021/06/16 07:17:33;;;;;;;6.57;3.95;;;24.30;99.90;;;;;;5004048;28;20214;-86
2021/06/16 07:19:59;;;;;;;7.28;4.25;;;24.20;99.90;;;;;;5017298;28;20210;-90
2021/06/16 07:22:25;;;;;;;5.18;3.72;;;24.30;99.90;;;;;;5017132;28;20214;-83
2021/06/16 07:24:51;;;;;;;6.43;4.18;;;25.20;99.90;;;;;;5033110;28;20198;-86
2021/06/16 07:27:17;;;;;;;6.30;4.40;;;25.80;99.90;;;;;;4999570;28;20214;-84
2021/06/16 07:29:42;;;;;;;6.65;4.75;;;25.60;99.90;;;;;;5032662;28;20261;-83
2021/06/16 07:32:09;;;;;;;6.55;4.53;;;25.90;99.90;;;;;;5030489;28;20260;-84
2021/06/16 07:34:34;;;;;;;6.78;4.55;;;26.80;99.90;;;;;;5015693;28;20229;-84
2021/06/16 07:37:00;;;;;;;7.78;4.65;;;26.30;99.90;;;;;;5034855;28;20190;-84
2021/06/16 07:39:26;;;;;;;5.57;4.20;;;26.00;99.90;;;;;;5033640;28;20191;-84
2021/06/16 07:41:52;;;;;;;9.43;4.88;;;25.70;99.90;;;;;;5032257;28;20226;-85
2021/06/16 07:44:19;;;;;;;6.63;4.82;;;26.30;99.90;;;;;;5016124;28;20210;-84
2021/06/16 07:46:44;;;;;;;7.50;4.38;;;27.50;99.90;;;;;;5017335;28;20218;-86
2021/06/16 07:49:10;;;;;;;6.93;4.82;;;26.90;99.90;;;;;;5017428;28;20199;-85
2021/06/16 07:51:36;;;;;;;6.72;4.05;;;26.10;99.90;;;;;;4997087;28;21104;-84
2021/06/16 07:54:02;;;;;;;7.90;4.97;;;26.60;99.90;;;;;;5011302;28;20219;-84
2021/06/16 07:56:28;;;;;;;5.55;4.32;;;26.40;99.90;;;;;;5031957;28;20226;-84
2021/06/16 07:58:54;;;;;;;6.15;4.30;;;26.50;99.90;;;;;;5032668;28;20234;-86
2021/06/16 08:01:20;;;;;;;11.95;4.95;;;26.90;99.90;;;;;;5030947;28;20227;-83
2021/06/16 08:03:46;;;;;;;7.05;4.50;;;27.50;99.90;;;;;;5013332;28;20227;-83
2021/06/16 08:06:12;;;;;;;5.68;4.10;;;27.70;99.90;;;;;;5030006;28;20780;-82
2021/06/16 08:08:38;;;;;;;8.35;5.03;;;27.90;99.90;;;;;;5032258;28;20222;-83
2021/06/16 08:11:03;;;;;;;6.40;4.43;;;27.00;99.90;;;;;;5015688;28;20222;-83
2021/06/16 08:13:32;;;;;;;7.13;4.40;;;26.10;99.90;;;;;;5011295;28;20678;-86
2021/06/16 08:15:58;;;;;;;6.18;4.50;;;25.90;99.90;;;;;;5031614;28;20192;-82
2021/06/16 08:18:25;;;;;;;8.40;5.05;;;26.60;99.90;;;;;;5029938;28;20205;-83
2021/06/16 08:20:51;;;;;;;6.95;4.90;;;27.80;99.90;;;;;;5012771;28;20245;-86
2021/06/16 08:23:17;;;;;;;8.45;4.40;;;28.20;99.90;;;;;;5031466;28;20218;-82
2021/06/16 08:25:43;;;;;;;8.43;4.35;;;28.40;99.90;;;;;;5030668;28;20226;-84
2021/06/16 08:28:08;;;;;;;6.95;4.35;;;29.10;99.90;;;;;;5030959;28;20186;-83
2021/06/16 08:30:34;;;;;;;6.55;4.70;;;28.50;99.90;;;;;;5028808;28;21236;-83
2021/06/16 08:33:00;;;;;;;5.50;4.78;;;27.50;99.90;;;;;;5017155;28;20232;-83
2021/06/16 08:35:26;;;;;;;5.40;4.90;;;27.60;99.90;;;;;;5014464;28;20218;-83
2021/06/16 08:37:52;;;;;;;10.50;4.80;;;27.10;99.90;;;;;;5029884;28;20245;-82
2021/06/16 08:40:18;;;;;;;5.80;3.83;;;27.80;99.90;;;;;;5012994;28;20751;-84
2021/06/16 08:42:48;;;;;;;6.70;4.10;;;27.90;99.90;;;;;;5031512;28;20210;-83
2021/06/16 08:45:15;;;;;;;8.00;4.72;;;27.90;99.90;;;;;;5031707;28;20218;-84
2021/06/16 08:47:42;;;;;;;6.85;3.92;;;28.10;99.90;;;;;;5030854;28;20245;-85
2021/06/16 08:50:12;;;;;;;5.32;4.35;;;28.70;99.90;;;;;;5031469;28;20236;-86
2021/06/16 08:52:39;;;;;;;7.60;3.50;;;28.20;99.90;;;;;;5011274;28;20267;-85
2021/06/16 08:55:08;;;;;;;4.97;3.90;;;28.70;99.90;;;;;;5030546;28;20211;-84
2021/06/16 08:57:35;;;;;;;6.85;4.05;;;28.50;99.90;;;;;;5029813;28;20197;-83
2021/06/16 09:00:03;;;;;;;7.70;4.15;;;29.10;99.90;;;;;;5028960;28;20701;-84
2021/06/16 09:02:29;;;;;;;7.85;4.20;;;28.70;99.90;;;;;;5013445;28;20210;-84
2021/06/16 09:04:55;;;;;;;5.95;3.70;;;29.90;99.90;;;;;;5029941;28;20217;-84
2021/06/16 09:07:26;;;;;;;8.68;3.63;;;29.20;99.90;;;;;;5028642;28;20271;-83
2021/06/16 09:10:09;;;;;;;5.25;3.47;;;29.50;99.90;;;;;;5030113;28;20770;-83
2021/06/16 09:12:43;;;;;;;6.65;4.03;;;30.80;99.40;;;;;;5030457;28;20569;-85
2021/06/16 09:15:17;;;;;;;9.38;3.80;;;30.40;99.30;;;;;;5028829;28;20224;-85
2021/06/16 09:18:01;;;;;;;10.05;4.32;;;28.50;99.90;;;;;;5031091;28;20367;-84
2021/06/16 09:20:30;;;;;;;6.28;4.35;;;28.70;99.90;;;;;;5032511;28;20218;-85
2021/06/16 09:23:09;;;;;;;6.97;4.30;;;27.70;99.90;;;;;;5029321;28;20239;-84
2021/06/16 09:25:35;;;;;;;7.22;4.30;;;27.70;99.90;;;;;;5027934;28;20229;-85
2021/06/16 09:28:02;;;;;;;7.95;4.25;;;27.50;99.90;;;;;;5026043;28;20218;-84
2021/06/16 09:30:31;;;;;;;5.63;3.80;;;28.10;99.90;;;;;;5037337;28;20272;-85
2021/06/16 09:33:03;;;;;;;7.85;4.65;;;27.80;99.90;;;;;;5031880;28;20261;-83
2021/06/16 09:35:31;;;;;;;9.23;4.10;;;28.00;99.90;;;;;;5029233;28;20241;-84
2021/06/16 09:37:59;;;;;;;6.75;4.75;;;29.70;99.90;;;;;;5045077;28;20332;-83
2021/06/16 09:40:34;;;;;;;5.43;4.63;;;30.50;99.90;;;;;;5029772;28;20573;-84
2021/06/16 09:43:01;;;;;;;6.38;4.00;;;28.60;99.90;;;;;;5030282;28;20193;-84
2021/06/16 09:45:28;;;;;;;6.70;4.00;;;29.10;99.90;;;;;;5031634;28;20209;-84
2021/06/16 09:47:55;;;;;;;8.60;4.60;;;30.50;99.80;;;;;;5031428;28;20301;-84
2021/06/16 09:50:23;;;;;;;7.32;4.57;;;30.80;99.80;;;;;;5028057;28;20207;-83
2021/06/16 09:52:50;;;;;;;6.30;3.85;;;31.50;98.20;;;;;;5030033;28;20222;-83
2021/06/16 09:55:25;;;;;;;5.30;3.95;;;32.80;98.30;;;;;;5014228;28;20734;-84
2021/06/16 09:58:17;;;;;;;7.25;4.70;;;33.00;96.80;;;;;;5046593;28;20192;-84
2021/06/16 10:00:52;;;;;;;10.57;4.32;;;31.50;96.60;;;;;;5026051;28;20235;-83
2021/06/16 10:03:21;;;;;;;5.50;4.03;;;30.80;99.10;;;;;;5029765;28;20551;-87
2021/06/16 10:06:11;;;;;;;5.22;3.67;;;29.10;99.90;;;;;;5027966;28;20205;-84
2021/06/16 10:08:50;;;;;;;7.55;4.68;;;28.60;99.90;;;;;;5027336;28;20261;-84
2021/06/16 10:11:19;;;;;;;8.25;5.50;;;28.90;99.90;;;;;;4998142;28;20264;-85
2021/06/16 10:13:47;;;;;;;7.50;5.20;;;28.40;99.90;;;;;;5031989;28;20210;-86
2021/06/16 10:16:14;;;;;;;7.20;4.13;;;28.40;99.90;;;;;;5046636;28;20190;-82
2021/06/16 10:18:41;;;;;;;6.53;4.78;;;28.70;99.90;;;;;;5012063;28;20186;-86
2021/06/16 10:21:08;;;;;;;5.20;3.97;;;27.20;99.90;;;;;;5014118;28;20301;-84
2021/06/16 10:23:34;;;;;;;6.35;4.22;;;27.90;99.90;;;;;;5013746;28;20215;-83
2021/06/16 10:26:04;;;;;;;8.20;5.22;;;27.90;99.90;;;;;;5030078;28;20577;-87
2021/06/16 10:28:55;;;;;;;9.93;4.15;;;27.60;99.90;;;;;;5045637;28;20300;-87
2021/06/16 10:31:22;;;;;;;8.23;5.03;;;26.90;99.90;;;;;;5025356;28;21030;-85
2021/06/16 10:33:57;;;;;;;6.05;4.80;;;26.20;99.90;;;;;;5008791;28;20201;-85
2021/06/16 10:36:23;;;;;;;8.18;4.65;;;26.90;99.90;;;;;;5026045;28;20218;-84
2021/06/16 10:38:58;;;;;;;8.48;4.32;;;26.80;99.90;;;;;;5029977;28;20689;-83
2021/06/16 10:41:45;;;;;;;10.52;4.47;;;26.80;99.90;;;;;;5027357;28;20229;-85
2021/06/16 10:44:22;;;;;;;8.02;4.90;;;27.20;99.90;;;;;;5029698;28;20253;-85
2021/06/16 10:46:48;;;;;;;8.60;4.63;;;28.00;99.90;;;;;;5029198;28;20267;-83
2021/06/16 10:49:13;;;;;;;8.50;4.53;;;27.70;99.90;;;;;;5032514;28;21203;-84
2021/06/16 10:51:41;;;;;;;7.70;4.60;;;27.50;99.90;;;;;;5017715;28;20272;-85
2021/06/16 10:54:23;;;;;;;7.60;3.92;;;27.40;99.90;;;;;;5016128;28;20222;-83
2021/06/16 10:57:00;;;;;;;8.52;4.05;;;28.20;99.90;;;;;;5032586;28;20222;-85
2021/06/16 10:59:44;;;;;;;9.50;3.92;;;27.90;99.90;;;;;;5035088;28;20245;-84
2021/06/16 11:02:15;;;;;;;6.35;3.75;;;28.90;99.90;;;;;;5042133;28;20260;-83
2021/06/16 11:04:42;;;;;;;5.80;3.70;;;27.50;99.90;;;;;;5018015;28;20214;-86
2021/06/16 11:07:26;;;;;;;9.23;4.25;;;27.30;99.90;;;;;;5035776;28;20178;-84
2021/06/16 11:09:57;;;;;;;5.70;3.50;;;27.30;99.90;;;;;;5035425;28;20428;-84
2021/06/16 11:12:30;;;;;;;3.78;3.42;;;27.10;99.90;;;;;;5035739;28;20236;-85
2021/06/16 11:14:58;;;;;;;5.43;4.38;;;26.90;99.90;;;;;;5034933;28;20228;-85
2021/06/16 11:17:27;;;;;;;7.90;3.63;;;27.30;99.90;;;;;;5032601;28;20226;-85
2021/06/16 11:19:57;;;;;;;6.80;3.70;;;28.00;99.90;;;;;;5026608;28;20229;-85
2021/06/16 11:22:29;;;;;;;5.60;3.88;;;28.60;99.90;;;;;;5012589;28;20717;-85
2021/06/16 11:25:09;;;;;;;5.75;3.95;;;28.90;99.90;;;;;;5035271;28;20209;-84
2021/06/16 11:27:56;;;;;;;6.22;4.00;;;29.70;99.90;;;;;;5033811;28;20201;-85
2021/06/16 11:30:35;;;;;;;5.00;3.75;;;29.70;99.90;;;;;;5032604;28;20218;-86
2021/06/16 11:33:22;;;;;;;5.90;3.50;;;28.50;99.90;;;;;;5049876;28;20221;-86
2021/06/16 11:35:51;;;;;;;8.13;3.30;;;27.60;99.90;;;;;;5048989;28;20226;-86
2021/06/16 11:38:17;;;;;;;6.30;3.45;;;26.30;99.90;;;;;;5034222;28;20304;-83
2021/06/16 11:41:05;;;;;;;5.95;3.80;;;26.90;99.90;;;;;;5033424;28;20304;-83
2021/06/16 11:43:33;;;;;;;4.45;3.80;;;27.60;99.90;;;;;;5047936;28;20242;-83
2021/06/16 11:46:01;;;;;;;7.43;4.20;;;27.90;99.90;;;;;;5033267;28;20186;-84
2021/06/16 11:48:27;;;;;;;8.07;4.93;;;28.70;99.90;;;;;;5033569;28;20187;-83
2021/06/16 11:50:53;;;;;;;6.57;4.03;;;28.30;99.90;;;;;;5033338;28;20288;-86
2021/06/16 11:53:27;;;;;;;3.53;3.22;;;27.50;99.90;;;;;;5014967;28;20320;-84
2021/06/16 11:55:53;;;;;;;8.90;3.75;;;27.00;99.90;;;;;;5033940;28;20253;-86
2021/06/16 11:58:32;;;;;;;7.60;4.28;;;26.70;99.90;;;;;;5000049;28;20950;-84
2021/06/16 12:01:08;;;;;;;5.32;3.50;;;26.40;99.90;;;;;;5027386;28;20251;-85
2021/06/16 12:03:36;;;;;;;5.82;4.15;;;26.70;99.90;;;;;;5031749;28;20305;-85
2021/06/16 12:06:06;;;;;;;5.38;3.70;;;27.60;99.90;;;;;;5002636;28;20210;-85
2021/06/16 12:08:33;;;;;;;7.68;4.68;;;27.20;99.90;;;;;;5032914;28;20731;-84
2021/06/16 12:11:00;;;;;;;6.85;3.88;;;26.60;99.90;;;;;;5031885;28;20230;-84
2021/06/16 12:13:27;;;;;;;7.15;4.32;;;26.00;99.90;;;;;;5016065;28;20685;-85
2021/06/16 12:15:53;;;;;;;7.20;4.47;;;25.90;99.90;;;;;;5033742;28;20640;-85
2021/06/16 12:18:19;;;;;;;4.75;3.13;;;26.10;99.90;;;;;;5033081;28;20279;-85
2021/06/16 12:20:52;;;;;;;7.10;3.80;;;26.00;99.90;;;;;;5031491;28;20226;-84
2021/06/16 12:23:22;;;;;;;4.20;3.60;;;26.70;99.90;;;;;;5035389;28;20223;-85
2021/06/16 12:25:50;;;;;;;3.75;3.30;;;26.90;99.90;;;;;;5032409;28;20265;-84
2021/06/16 12:28:16;;;;;;;5.85;3.83;;;27.40;99.90;;;;;;5016367;28;20218;-87
2021/06/16 12:30:43;;;;;;;4.57;3.28;;;26.70;99.90;;;;;;5032796;28;20187;-87
2021/06/16 12:36:15;;;;;;;6.38;3.90;;;26.00;99.90;;;;;;5033894;28;20312;-88
2021/06/16 12:38:43;;;;;;;3.58;3.28;;;26.30;99.90;;;;;;5031821;28;20267;-88
2021/06/16 12:41:29;;;;;;;4.68;3.17;;;26.40;99.90;;;;;;5031982;28;20241;-88
2021/06/16 12:44:33;;;;;;;4.00;3.22;;;26.30;99.90;;;;;;5032791;28;20213;-88
2021/06/16 12:47:23;;;;;;;5.22;3.35;;;26.10;99.90;;;;;;5034146;28;20320;-86
2021/06/16 12:49:51;;;;;;;4.18;3.22;;;25.80;99.90;;;;;;5033502;28;20222;-86
2021/06/16 12:52:31;;;;;;;3.28;2.90;;;26.00;99.90;;;;;;5032868;28;20227;-88
2021/06/16 12:55:09;;;;;;;3.08;2.70;;;26.00;99.90;;;;;;5050457;28;20194;-88
2021/06/16 12:57:48;;;;;;;3.08;2.80;;;26.10;99.90;;;;;;5032645;28;20715;-88